WetterOnline ( https://www.wetteronline.de )

Wetter aktuell Lütetsburg

Aktuelles Wetter: Norderney (16m)

6-stündlich | Neueste Meldungen
Ortszeit Temperatur Wetter
Fr, 05.03. 19:00 3.5° C wolkenlos
Fr, 05.03. 13:00 4.6° C leicht bewölkt
Fr, 05.03. 7:00 2.4° C leicht bewölkt
Fr, 05.03. 1:00 3.2° C bedeckt
Do, 04.03. 19:00 3.0° C wolkig
Do, 04.03. 13:00 4.6° C bewölkt
Do, 04.03. 7:00 3.4° C bedeckt
Do, 04.03. 1:00 2.6° C bedeckt
Ortszeit Temperatur Wetter
Fr, 05.03. 23:00 3.3° C leicht bewölkt
Fr, 05.03. 22:50 3.3° C leicht bewölkt
Fr, 05.03. 22:40 3.2° C leicht bewölkt
Fr, 05.03. 22:30 3.2° C leicht bewölkt
Fr, 05.03. 22:20 3.2° C leicht bewölkt
Fr, 05.03. 22:10 3.3° C fast wolkenlos
Fr, 05.03. 22:00 3.3° C leicht bewölkt
Fr, 05.03. 21:30 3.2° C bewölkt
Fr, 05.03. 21:00 3.3° C fast wolkenlos
Ortszeit Relative Feuchte Sichtweite
Fr, 05.03. 19:00 80% 20 km
Fr, 05.03. 13:00 68% 24 km
Fr, 05.03. 7:00 66% 27 km
Fr, 05.03. 1:00 62% 18 km
Do, 04.03. 19:00 78% 22 km
Do, 04.03. 13:00 79% 11 km
Do, 04.03. 7:00 90% 40 km
Do, 04.03. 1:00 96% 3.2 km
Ortszeit Relative Feuchte Sichtweite
Fr, 05.03. 23:00 81% 23 km
Fr, 05.03. 22:50 81% -
Fr, 05.03. 22:40 82% -
Fr, 05.03. 22:30 82% 26 km
Fr, 05.03. 22:20 82% -
Fr, 05.03. 22:10 81% -
Fr, 05.03. 22:00 77% 35 km
Fr, 05.03. 21:30 78% 30 km
Fr, 05.03. 21:00 78% 26 km
Ortszeit Niederschlagsmenge Niederschlagsart
Fr, 05.03. 19:00 0.0 l/m2 in 12 Std. -
Fr, 05.03. 13:00 0.0 l/m2 in 6 Std. -
Fr, 05.03. 7:00 0.0 l/m2 in 12 Std. -
Fr, 05.03. 1:00 0.0 l/m2 in 6 Std. -
Do, 04.03. 19:00 0.0 l/m2 in 12 Std. -
Do, 04.03. 13:00 0.0 l/m2 in 6 Std. -
Do, 04.03. 7:00 0.1 l/m2 in 12 Std. Sprühregen
Do, 04.03. 1:00 0.0 l/m2 in 6 Std. -
Ortszeit Niederschlagsmenge Niederschlagsart
Fr, 05.03. 23:00 0.0 l/m2 in 1 Std. -
Fr, 05.03. 22:50 keine Meldung -
Fr, 05.03. 22:40 keine Meldung -
Fr, 05.03. 22:30 0.0 l/m2 in 1 Std. -
Fr, 05.03. 22:20 keine Meldung -
Fr, 05.03. 22:10 keine Meldung -
Fr, 05.03. 22:00 0.0 l/m2 in 1 Std. -
Fr, 05.03. 21:30 0.0 l/m2 in 1 Std. -
Fr, 05.03. 21:00 0.0 l/m2 in 1 Std. -
Ortszeit Stärke Spitze Richtung
km/h Bft. km/h Grad Sektor
Fr, 05.03. 19:00 11 2 29 300° NW
Fr, 05.03. 13:00 14 3 25 310° NW
Fr, 05.03. 7:00 22 4 47 20° N
Fr, 05.03. 1:00 26 4 39 40° NO
Do, 04.03. 19:00 30 5 44 50° NO
Do, 04.03. 13:00 22 4 32 330° NW
Do, 04.03. 7:00 19 3 30 270° W
Do, 04.03. 1:00 17 3 30 320° NW
Ortszeit Stärke Spitze Richtung
km/h Bft. km/h Grad Sektor
Fr, 05.03. 23:00 18 3 22 320° NW
Fr, 05.03. 22:50 18 3 - 320° NW
Fr, 05.03. 22:40 14 3 - 320° NW
Fr, 05.03. 22:30 18 3 22 320° NW
Fr, 05.03. 22:20 18 3 - 320° NW
Fr, 05.03. 22:10 17 3 - 330° NW
Fr, 05.03. 22:00 14 3 32 340° N
Fr, 05.03. 21:30 18 3 32 340° N
Fr, 05.03. 21:00 13 3 17 330° NW
Ortszeit Untergrenze Bedeckung Gattung
total tief tief mittel hoch
Fr, 05.03. 19:00 - 0/8 0/8 - - -
Fr, 05.03. 13:00 9000 m 6/8 0/8 - - -
Fr, 05.03. 7:00 1050 m 2/8 2/8 - - -
Fr, 05.03. 1:00 1500 m 8/8 8/8 - - -
Do, 04.03. 19:00 420 m 6/8 6/8 - - -
Do, 04.03. 13:00 600 m 7/8 7/8 - - -
Do, 04.03. 7:00 510 m 8/8 8/8 - - -
Do, 04.03. 1:00 90 m 8/8 8/8 - - -
Ortszeit Bedeckungsgrad in Achtel und Wolkenuntergrenze
Fr, 05.03. 23:00 4(1140m)
Fr, 05.03. 22:50 4(1140m)
Fr, 05.03. 22:40 2(1020m) 2(1200m)
Fr, 05.03. 22:30 2(1080m)
Fr, 05.03. 22:20 2(1080m)
Fr, 05.03. 22:10 1(1080m)
Fr, 05.03. 22:00 3(1230m)
Fr, 05.03. 21:30 2(810m) 5(1050m) 7(1230m)
Fr, 05.03. 21:00 3(1050m)
Ortszeit Luftdruck NN (hPa) Tendenz (hPa in 3 Std.)
Fr, 05.03. 19:00 1032 + 1,1
Fr, 05.03. 13:00 1030 + 1,4
Fr, 05.03. 7:00 1028 + 1,5
Fr, 05.03. 1:00 1025 + 1,9
Do, 04.03. 19:00 1021 + 1,6
Do, 04.03. 13:00 1020 0,0
Do, 04.03. 7:00 1021 - 1,7
Do, 04.03. 1:00 1024 - 1,1
Ortszeit Luftdruck NN (hPa) Tendenz (hPa in 3 Std.)
Fr, 05.03. 23:00 1033 + 0,9
Fr, 05.03. 22:50 1033 keine Meldung
Fr, 05.03. 22:40 1033 keine Meldung
Fr, 05.03. 22:30 1033 + 1,0
Fr, 05.03. 22:20 1033 keine Meldung
Fr, 05.03. 22:10 1033 keine Meldung
Fr, 05.03. 22:00 1033 + 1,2
Fr, 05.03. 21:30 1033 + 1,4
Fr, 05.03. 21:00 1033 + 1,4
Ortszeit Schneehöhe (cm)
Fr, 05.03. 19:00 0
Fr, 05.03. 13:00 0
Fr, 05.03. 7:00 0
Fr, 05.03. 1:00 0
Do, 04.03. 19:00 0
Do, 04.03. 13:00 0
Do, 04.03. 7:00 0
Do, 04.03. 1:00 0
Ortszeit Schneehöhe (cm)
Fr, 05.03. 23:00 0
Fr, 05.03. 22:50 0
Fr, 05.03. 22:40 0
Fr, 05.03. 22:30 0
Fr, 05.03. 22:20 0
Fr, 05.03. 22:10 0
Fr, 05.03. 22:00 0
Fr, 05.03. 21:30 0
Fr, 05.03. 21:00 0
Link zu dieser Seite / Seite empfehlen

Das Wetter in ...